Time;durP1;ratioP1;P1;durP2;ratioP2;P2;SDS_P1;SDS_P2;PMS_P1;PMS_P2;Temp;Humidity;BMP_temperature;BMP_pressure;BME280_temperature;BME280_humidity;BME280_pressure;Samples;Min_cycle;Max_cycle;Signal;HPM_P1;HPM_P2
2021/08/24 00:00:46;;;;;;;2.13;1.38;;;15.80;97.10;;;;;;5094687;28;20348;-85
2021/08/24 00:03:11;;;;;;;1.75;1.15;;;15.80;97.00;;;;;;5092207;28;20050;-85
2021/08/24 00:05:38;;;;;;;2.20;1.00;;;15.80;97.10;;;;;;5102874;28;20417;-84
2021/08/24 00:08:05;;;;;;;2.13;1.27;;;15.80;97.10;;;;;;5097859;28;20043;-85
2021/08/24 00:10:40;;;;;;;3.08;1.33;;;15.70;97.30;;;;;;5108029;28;20039;-85
2021/08/24 00:13:07;;;;;;;4.13;1.20;;;15.70;97.60;;;;;;5103070;28;20066;-85
2021/08/24 00:15:33;;;;;;;2.83;1.33;;;15.70;97.60;;;;;;5100387;28;20107;-85
2021/08/24 00:18:00;;;;;;;1.42;0.98;;;15.70;97.60;;;;;;5101150;28;20078;-85
2021/08/24 00:20:31;;;;;;;1.63;1.13;;;15.70;97.50;;;;;;5105254;28;20040;-85
2021/08/24 00:23:02;;;;;;;2.53;1.25;;;15.70;97.60;;;;;;5097843;28;20142;-86
2021/08/24 00:25:27;;;;;;;2.92;1.40;;;15.70;97.60;;;;;;5093275;28;20549;-85
2021/08/24 00:27:53;;;;;;;2.45;0.98;;;15.70;97.60;;;;;;5100106;28;20035;-86
2021/08/24 00:30:18;;;;;;;1.98;1.30;;;15.70;97.70;;;;;;5094702;28;20139;-85
2021/08/24 00:32:44;;;;;;;5.13;1.23;;;15.60;97.80;;;;;;5096516;28;20071;-87
2021/08/24 00:35:10;;;;;;;3.42;1.52;;;15.70;97.60;;;;;;5106590;28;20312;-87
2021/08/24 00:37:35;;;;;;;4.13;1.20;;;15.60;97.60;;;;;;5098856;28;20035;-85
2021/08/24 00:40:03;;;;;;;2.25;1.20;;;15.60;97.70;;;;;;5101333;28;20031;-84
2021/08/24 00:42:28;;;;;;;7.75;1.27;;;15.60;97.80;;;;;;5098447;28;20093;-85
2021/08/24 00:44:54;;;;;;;5.70;1.50;;;15.60;97.70;;;;;;5088481;28;20025;-86
2021/08/24 00:47:23;;;;;;;2.78;1.42;;;15.60;97.90;;;;;;5086686;28;20349;-85
2021/08/24 00:49:49;;;;;;;3.38;1.50;;;15.50;98.00;;;;;;5094686;28;20035;-85
2021/08/24 00:52:19;;;;;;;3.22;1.40;;;15.50;98.00;;;;;;5102717;28;20032;-85
2021/08/24 00:54:45;;;;;;;3.10;1.75;;;15.50;98.10;;;;;;5096720;28;20033;-85
2021/08/24 00:57:15;;;;;;;2.58;1.27;;;15.50;98.30;;;;;;5090825;28;20070;-84
2021/08/24 00:59:41;;;;;;;3.10;1.50;;;15.50;98.30;;;;;;5083575;28;20044;-84
2021/08/24 01:02:16;;;;;;;4.22;2.00;;;15.50;98.40;;;;;;5083886;28;20413;-85
2021/08/24 01:04:42;;;;;;;1.50;1.40;;;15.50;98.20;;;;;;5096586;28;20378;-84
2021/08/24 01:07:25;;;;;;;4.18;1.50;;;15.40;98.20;;;;;;5100001;28;20035;-84
2021/08/24 01:10:01;;;;;;;2.30;1.30;;;15.50;98.40;;;;;;5095715;28;20044;-86
2021/08/24 01:12:38;;;;;;;3.00;1.50;;;15.50;98.20;;;;;;5099381;28;20101;-85
2021/08/24 01:15:42;;;;;;;1.58;1.10;;;15.40;98.30;;;;;;5098131;28;20105;-85
2021/08/24 01:18:24;;;;;;;2.80;1.40;;;15.40;98.40;;;;;;5009295;28;20088;-86
2021/08/24 01:21:33;;;;;;;1.73;1.23;;;15.30;98.70;;;;;;5036563;28;20037;-85
2021/08/24 01:24:17;;;;;;;3.00;1.50;;;15.40;98.40;;;;;;5073780;28;20386;-86
2021/08/24 01:27:02;;;;;;;3.35;1.30;;;15.40;98.40;;;;;;5080345;28;20072;-84
2021/08/24 01:30:00;;;;;;;2.45;1.40;;;15.30;98.40;;;;;;5091973;28;20035;-85
2021/08/24 01:32:36;;;;;;;3.47;1.60;;;15.30;98.70;;;;;;5105441;27;20036;-85
2021/08/24 01:35:18;;;;;;;3.08;1.20;;;15.30;98.70;;;;;;5108516;27;20131;-85
2021/08/24 01:38:07;;;;;;;3.08;1.48;;;15.30;98.80;;;;;;5091082;28;20036;-85
2021/08/24 01:40:54;;;;;;;6.38;1.67;;;15.40;98.60;;;;;;5102348;28;20108;-85
2021/08/24 01:43:28;;;;;;;4.10;1.30;;;15.40;98.70;;;;;;5101695;28;20302;-86
2021/08/24 01:46:07;;;;;;;1.83;1.33;;;15.40;98.60;;;;;;5091104;28;20036;-86
2021/08/24 01:48:37;;;;;;;4.70;1.98;;;15.40;98.70;;;;;;5106159;28;20071;-85
2021/08/24 01:51:09;;;;;;;3.17;1.20;;;15.40;98.90;;;;;;5099547;28;20135;-85
2021/08/24 01:53:50;;;;;;;2.95;1.90;;;15.40;98.90;;;;;;5083811;28;20039;-85
2021/08/24 01:56:21;;;;;;;4.80;1.50;;;15.40;98.70;;;;;;5102128;28;20067;-86
2021/08/24 01:58:49;;;;;;;2.85;1.95;;;15.40;98.90;;;;;;5102554;28;20051;-85
2021/08/24 02:01:18;;;;;;;3.50;1.50;;;15.40;98.70;;;;;;5090240;28;20071;-85
2021/08/24 02:03:49;;;;;;;1.90;1.17;;;15.40;98.70;;;;;;5107086;28;20136;-85
2021/08/24 02:06:22;;;;;;;2.13;1.40;;;15.40;98.70;;;;;;5100952;28;20038;-85
2021/08/24 02:08:51;;;;;;;3.05;1.63;;;15.40;98.70;;;;;;5102923;28;20055;-85
2021/08/24 02:11:18;;;;;;;3.47;1.15;;;15.40;98.80;;;;;;5104896;28;20051;-87
2021/08/24 02:13:47;;;;;;;3.92;1.55;;;15.40;98.80;;;;;;5106320;28;20070;-86
2021/08/24 02:16:19;;;;;;;2.75;1.60;;;15.40;98.90;;;;;;5107775;28;20036;-85
2021/08/24 02:18:50;;;;;;;2.63;1.47;;;15.40;99.00;;;;;;5095788;28;20044;-87
2021/08/24 02:21:23;;;;;;;4.38;1.50;;;15.40;98.90;;;;;;5100945;28;20699;-85
2021/08/24 02:23:50;;;;;;;3.38;1.50;;;15.40;99.00;;;;;;5101615;28;20054;-85
2021/08/24 02:26:18;;;;;;;4.15;1.63;;;15.40;99.00;;;;;;5103492;28;20036;-85
2021/08/24 02:28:50;;;;;;;2.95;1.63;;;15.50;98.80;;;;;;5087278;28;20055;-85
2021/08/24 02:31:39;;;;;;;2.90;1.58;;;15.40;98.90;;;;;;5105539;28;20039;-85
2021/08/24 02:34:26;;;;;;;3.05;1.70;;;15.40;99.00;;;;;;5097242;28;20031;-85
2021/08/24 02:37:15;;;;;;;2.15;1.33;;;15.40;99.00;;;;;;5095371;28;20036;-85
2021/08/24 02:40:06;;;;;;;3.13;1.60;;;15.40;99.10;;;;;;5099001;28;20044;-87
2021/08/24 02:43:08;;;;;;;3.35;1.65;;;15.30;99.00;;;;;;5096779;28;20047;-85
2021/08/24 02:45:39;;;;;;;3.00;1.73;;;15.30;99.00;;;;;;5087696;28;20036;-85
2021/08/24 02:48:10;;;;;;;3.80;1.80;;;15.30;99.20;;;;;;5092073;28;20108;-85
2021/08/24 02:50:36;;;;;;;4.03;1.40;;;15.20;99.30;;;;;;5091353;28;20044;-85
2021/08/24 02:53:03;;;;;;;5.45;1.67;;;15.20;99.20;;;;;;5091780;28;20037;-86
2021/08/24 02:55:29;;;;;;;5.90;1.77;;;15.30;99.20;;;;;;5096553;28;20043;-85
2021/08/24 02:57:55;;;;;;;5.05;2.10;;;15.20;99.30;;;;;;5101035;28;20043;-84
2021/08/24 03:00:20;;;;;;;6.10;1.80;;;15.20;99.20;;;;;;5103722;28;20039;-87
2021/08/24 03:02:46;;;;;;;3.28;1.60;;;15.20;99.30;;;;;;5087612;28;20539;-85
2021/08/24 03:05:11;;;;;;;3.38;1.73;;;15.10;99.40;;;;;;5093758;28;20104;-85
2021/08/24 03:07:40;;;;;;;4.18;1.48;;;15.10;99.30;;;;;;5094951;28;20063;-85
2021/08/24 03:10:10;;;;;;;2.10;1.25;;;15.00;99.30;;;;;;5097758;28;20064;-85
2021/08/24 03:13:11;;;;;;;3.60;1.95;;;14.90;99.50;;;;;;5084758;28;20032;-86
2021/08/24 03:15:53;;;;;;;2.47;1.40;;;14.80;99.60;;;;;;5104081;28;20036;-85
2021/08/24 03:18:25;;;;;;;3.50;1.90;;;14.80;99.80;;;;;;5082738;28;20041;-85
2021/08/24 03:20:56;;;;;;;4.22;1.92;;;14.60;99.90;;;;;;5106420;28;20074;-85
2021/08/24 03:23:24;;;;;;;3.00;1.65;;;14.60;99.90;;;;;;5095818;28;20393;-86
2021/08/24 03:25:51;;;;;;;6.00;1.75;;;14.60;99.90;;;;;;5103267;28;20429;-85
2021/08/24 03:28:20;;;;;;;3.97;1.73;;;14.50;99.90;;;;;;5098399;28;20051;-86
2021/08/24 03:30:46;;;;;;;2.75;1.73;;;14.50;99.90;;;;;;5110613;28;20094;-87
2021/08/24 03:33:13;;;;;;;5.45;1.77;;;14.50;99.90;;;;;;5091415;28;20040;-84
2021/08/24 03:35:39;;;;;;;3.95;2.00;;;14.50;99.90;;;;;;5102535;28;20039;-84
2021/08/24 03:38:05;;;;;;;4.10;1.77;;;14.40;99.90;;;;;;5096570;28;20092;-84
2021/08/24 03:40:31;;;;;;;3.17;1.90;;;14.40;99.90;;;;;;5094383;28;20600;-84
2021/08/24 03:42:57;;;;;;;3.17;1.75;;;14.40;99.90;;;;;;5100635;28;20123;-85
2021/08/24 03:45:22;;;;;;;4.28;1.88;;;14.40;99.90;;;;;;5103903;28;20470;-84
2021/08/24 03:47:48;;;;;;;4.30;1.90;;;14.40;99.90;;;;;;5089756;28;20048;-84
2021/08/24 03:50:13;;;;;;;2.50;1.77;;;14.40;99.90;;;;;;5100166;28;20044;-84
2021/08/24 03:52:39;;;;;;;3.72;1.92;;;14.40;99.90;;;;;;5095828;28;20062;-85
2021/08/24 03:55:05;;;;;;;3.10;1.95;;;14.40;99.90;;;;;;5108587;28;20072;-85
2021/08/24 03:57:31;;;;;;;3.47;1.75;;;14.40;99.90;;;;;;5105778;28;20047;-86
2021/08/24 03:59:57;;;;;;;2.88;2.15;;;14.40;99.90;;;;;;5086741;28;20039;-85
2021/08/24 04:02:24;;;;;;;4.13;2.03;;;14.30;99.90;;;;;;5092204;28;20395;-85
2021/08/24 04:04:50;;;;;;;5.82;1.90;;;14.30;99.90;;;;;;5088749;28;20043;-84
2021/08/24 04:07:16;;;;;;;4.57;2.30;;;14.30;99.90;;;;;;5088247;28;20044;-86
2021/08/24 04:09:42;;;;;;;4.25;2.17;;;14.30;99.90;;;;;;5101834;28;20429;-85
2021/08/24 04:12:07;;;;;;;3.80;1.83;;;14.20;99.90;;;;;;5111055;28;20040;-86
2021/08/24 04:14:33;;;;;;;2.28;1.40;;;14.20;99.90;;;;;;5091606;28;20032;-86
2021/08/24 04:16:58;;;;;;;4.82;2.30;;;14.20;99.90;;;;;;5097076;28;20132;-86
2021/08/24 04:19:24;;;;;;;3.72;2.28;;;14.10;99.90;;;;;;5104488;28;20062;-85
2021/08/24 04:21:50;;;;;;;6.13;2.13;;;14.10;99.90;;;;;;5086260;28;20122;-85
2021/08/24 04:24:15;;;;;;;3.63;1.80;;;14.10;99.90;;;;;;5098490;28;20065;-86
2021/08/24 04:26:41;;;;;;;3.88;1.77;;;14.10;99.90;;;;;;5104015;28;20044;-86
2021/08/24 04:29:06;;;;;;;4.93;2.20;;;14.10;99.90;;;;;;5092946;28;20456;-86
2021/08/24 04:31:36;;;;;;;5.20;2.45;;;14.00;99.90;;;;;;5098495;28;20032;-84
2021/08/24 04:34:02;;;;;;;3.00;1.92;;;14.00;99.90;;;;;;5111447;28;20114;-84
2021/08/24 04:36:28;;;;;;;4.55;1.98;;;14.00;99.90;;;;;;5095383;28;20074;-86
2021/08/24 04:38:53;;;;;;;7.18;2.47;;;14.00;99.90;;;;;;5106124;28;20132;-85
2021/08/24 04:41:18;;;;;;;3.30;1.90;;;13.90;99.90;;;;;;5100092;28;20050;-86
2021/08/24 04:43:44;;;;;;;4.70;2.47;;;13.90;99.90;;;;;;5107180;28;20048;-86
2021/08/24 04:46:10;;;;;;;6.10;2.58;;;13.90;99.90;;;;;;5096619;28;20292;-85
2021/08/24 04:48:35;;;;;;;3.10;2.47;;;13.90;99.90;;;;;;5095935;28;20048;-86
2021/08/24 04:51:01;;;;;;;2.85;1.88;;;13.90;99.90;;;;;;5089164;28;20036;-86
2021/08/24 04:53:26;;;;;;;3.00;1.95;;;13.90;99.90;;;;;;5093347;28;20093;-85
2021/08/24 04:55:52;;;;;;;7.93;2.10;;;13.90;99.90;;;;;;5090707;28;20031;-86
2021/08/24 04:58:18;;;;;;;4.95;2.33;;;14.00;99.90;;;;;;5086051;28;20043;-84
2021/08/24 05:00:45;;;;;;;2.92;1.83;;;14.00;99.90;;;;;;5105913;28;20068;-84
2021/08/24 05:03:11;;;;;;;3.88;2.03;;;14.00;99.90;;;;;;5097284;28;20115;-85
2021/08/24 05:05:36;;;;;;;3.92;2.13;;;14.00;99.90;;;;;;5103754;28;20135;-86
2021/08/24 05:08:03;;;;;;;2.22;1.48;;;14.00;99.90;;;;;;5096671;28;20115;-84
2021/08/24 05:10:30;;;;;;;3.67;1.60;;;14.10;99.90;;;;;;5089068;28;20063;-84
2021/08/24 05:12:56;;;;;;;4.55;2.00;;;14.10;99.90;;;;;;5096031;28;20510;-85
2021/08/24 05:15:22;;;;;;;4.53;1.85;;;14.10;99.90;;;;;;5095516;28;20044;-85
2021/08/24 05:17:49;;;;;;;4.10;2.10;;;14.00;99.90;;;;;;5097040;28;20036;-86
2021/08/24 05:20:16;;;;;;;2.13;1.55;;;14.00;99.90;;;;;;5095740;28;20040;-84
2021/08/24 05:22:44;;;;;;;7.13;2.50;;;14.00;99.90;;;;;;5096654;28;20081;-84
2021/08/24 05:25:13;;;;;;;4.00;1.75;;;14.00;99.90;;;;;;5101744;28;20040;-86
2021/08/24 05:27:39;;;;;;;5.13;1.70;;;14.10;99.90;;;;;;5115917;28;20050;-86
2021/08/24 05:30:09;;;;;;;3.03;1.80;;;14.10;99.90;;;;;;5097718;28;20040;-86
2021/08/24 05:32:35;;;;;;;2.38;1.50;;;14.10;99.90;;;;;;5087387;28;20467;-86
2021/08/24 05:35:00;;;;;;;4.60;1.90;;;14.10;99.90;;;;;;5089568;28;20040;-87
2021/08/24 05:37:26;;;;;;;3.10;1.80;;;14.10;99.90;;;;;;5085172;28;20046;-85
2021/08/24 05:39:52;;;;;;;4.72;1.80;;;14.20;99.90;;;;;;5085691;28;20372;-86
2021/08/24 05:42:17;;;;;;;2.72;1.88;;;14.20;99.90;;;;;;5091556;28;20298;-85
2021/08/24 05:44:44;;;;;;;3.17;1.77;;;14.20;99.90;;;;;;5086982;28;20038;-85
2021/08/24 05:47:10;;;;;;;2.97;1.70;;;14.30;99.90;;;;;;5090150;28;20051;-84
2021/08/24 05:49:36;;;;;;;3.60;1.90;;;14.40;99.90;;;;;;5091098;28;20040;-85
2021/08/24 05:52:02;;;;;;;3.90;1.73;;;14.60;99.90;;;;;;5101999;27;20033;-85
2021/08/24 05:54:28;;;;;;;2.50;1.40;;;14.70;99.90;;;;;;5088087;28;20414;-85
2021/08/24 05:56:54;;;;;;;3.45;2.20;;;14.70;99.90;;;;;;5090424;28;20040;-87
2021/08/24 05:59:19;;;;;;;2.75;1.63;;;14.80;99.90;;;;;;5086108;28;20044;-87
2021/08/24 06:01:45;;;;;;;2.10;1.40;;;14.90;99.90;;;;;;5091396;28;20048;-84
2021/08/24 06:04:11;;;;;;;3.25;1.75;;;15.10;99.90;;;;;;5099428;28;20130;-84
2021/08/24 06:06:39;;;;;;;4.18;1.95;;;15.10;99.70;;;;;;5093890;28;20055;-86
2021/08/24 06:09:08;;;;;;;1.80;1.30;;;15.10;99.40;;;;;;5086310;28;20127;-86
2021/08/24 06:11:36;;;;;;;3.15;1.40;;;15.20;99.40;;;;;;5092394;28;20040;-84
2021/08/24 06:14:04;;;;;;;5.32;1.92;;;15.20;99.50;;;;;;5088275;28;20115;-85
2021/08/24 06:16:31;;;;;;;6.07;1.88;;;15.20;99.30;;;;;;5082707;28;20038;-85
2021/08/24 06:18:57;;;;;;;3.42;1.70;;;15.20;99.60;;;;;;5088767;28;20043;-85
2021/08/24 06:21:22;;;;;;;2.95;1.48;;;15.20;99.40;;;;;;5091654;28;20055;-85
2021/08/24 06:23:49;;;;;;;2.40;1.67;;;15.20;99.60;;;;;;5086068;28;20540;-86
2021/08/24 06:26:16;;;;;;;3.40;1.60;;;15.30;99.30;;;;;;5084736;28;20033;-85
2021/08/24 06:28:41;;;;;;;4.72;1.60;;;15.30;99.40;;;;;;5086599;28;20036;-84
2021/08/24 06:31:09;;;;;;;5.50;2.70;;;15.30;99.60;;;;;;5083803;28;20036;-84
2021/08/24 06:33:38;;;;;;;2.50;1.40;;;15.40;99.60;;;;;;5096648;28;20029;-85
2021/08/24 06:36:05;;;;;;;6.30;2.05;;;15.40;99.00;;;;;;5088266;28;20064;-84
2021/08/24 06:38:31;;;;;;;1.80;1.38;;;15.40;99.20;;;;;;5101558;28;20105;-85
2021/08/24 06:40:58;;;;;;;5.18;1.67;;;15.50;99.20;;;;;;5097453;28;20549;-85
2021/08/24 06:43:23;;;;;;;4.07;2.13;;;15.50;99.40;;;;;;5084568;28;20029;-85
2021/08/24 06:45:49;;;;;;;1.48;1.10;;;15.60;99.20;;;;;;5088133;28;20063;-85
2021/08/24 06:48:14;;;;;;;3.28;1.83;;;15.60;98.90;;;;;;5090486;28;20275;-86
2021/08/24 06:50:40;;;;;;;3.05;1.70;;;15.70;98.70;;;;;;5088997;28;20048;-85
2021/08/24 06:53:05;;;;;;;3.08;1.90;;;15.70;98.70;;;;;;5090378;28;20025;-85
2021/08/24 06:55:31;;;;;;;2.00;1.60;;;15.80;98.70;;;;;;5100207;28;20027;-86
2021/08/24 06:58:00;;;;;;;2.80;1.92;;;15.80;98.70;;;;;;5116284;28;20051;-85
2021/08/24 07:00:28;;;;;;;1.92;1.40;;;15.90;98.50;;;;;;5101600;28;20097;-87
2021/08/24 07:02:54;;;;;;;3.47;1.35;;;15.90;98.30;;;;;;5094921;28;20051;-86
2021/08/24 07:05:22;;;;;;;3.40;1.50;;;15.90;98.30;;;;;;5092413;28;20043;-86
2021/08/24 07:07:47;;;;;;;4.30;1.63;;;15.90;98.30;;;;;;5094236;28;20081;-85
2021/08/24 07:10:14;;;;;;;3.88;1.48;;;16.00;98.40;;;;;;5090484;28;20048;-86
2021/08/24 07:12:40;;;;;;;3.33;1.50;;;16.00;98.60;;;;;;5091517;28;20036;-85
2021/08/24 07:15:07;;;;;;;2.38;1.67;;;16.10;98.30;;;;;;5114389;27;20093;-85
2021/08/24 07:17:34;;;;;;;2.33;1.38;;;16.10;98.20;;;;;;5093170;28;20048;-87
2021/08/24 07:20:00;;;;;;;4.47;1.90;;;16.20;98.60;;;;;;5091745;28;20074;-85
2021/08/24 07:22:25;;;;;;;3.92;1.60;;;16.20;98.50;;;;;;5099277;28;20039;-86
2021/08/24 07:24:51;;;;;;;3.50;1.58;;;16.30;98.20;;;;;;5091426;28;20119;-87
2021/08/24 07:27:16;;;;;;;2.55;1.45;;;16.40;98.20;;;;;;5091779;28;20073;-85
2021/08/24 07:29:42;;;;;;;2.42;1.30;;;16.50;97.80;;;;;;5096882;28;20054;-84
2021/08/24 07:32:08;;;;;;;3.70;1.38;;;16.60;97.90;;;;;;5101719;28;20090;-84
2021/08/24 07:34:34;;;;;;;3.17;1.60;;;16.70;97.70;;;;;;5089842;28;20132;-85
2021/08/24 07:37:00;;;;;;;3.45;1.20;;;16.60;97.20;;;;;;5114327;28;20039;-85
2021/08/24 07:39:26;;;;;;;3.20;1.40;;;16.60;97.50;;;;;;5106056;28;20040;-85
2021/08/24 07:41:52;;;;;;;1.75;1.40;;;16.70;97.90;;;;;;5100734;28;20415;-85
2021/08/24 07:44:22;;;;;;;2.25;1.25;;;16.80;97.20;;;;;;5112240;28;20040;-87
2021/08/24 07:46:48;;;;;;;2.90;1.42;;;16.80;97.50;;;;;;5114248;28;20097;-86
2021/08/24 07:49:14;;;;;;;2.20;1.38;;;16.90;97.10;;;;;;5097186;28;20044;-86
2021/08/24 07:51:39;;;;;;;2.70;1.27;;;16.90;97.30;;;;;;5103752;28;20032;-86
2021/08/24 07:54:05;;;;;;;2.15;1.17;;;16.90;97.20;;;;;;5098888;28;20403;-86
2021/08/24 07:56:30;;;;;;;3.58;1.30;;;16.90;97.00;;;;;;5101317;28;20036;-86
2021/08/24 07:58:56;;;;;;;2.70;1.30;;;17.00;96.90;;;;;;5110317;28;20039;-86
2021/08/24 08:01:21;;;;;;;3.13;1.60;;;17.10;96.40;;;;;;5101314;28;20331;-86
2021/08/24 08:03:47;;;;;;;3.00;1.38;;;17.10;96.90;;;;;;5099888;28;20051;-86
2021/08/24 08:06:13;;;;;;;2.15;0.95;;;17.20;96.30;;;;;;5099114;28;20039;-86
2021/08/24 08:08:39;;;;;;;1.83;1.00;;;17.20;96.40;;;;;;5112893;28;20688;-85
2021/08/24 08:11:04;;;;;;;2.25;1.00;;;17.30;96.80;;;;;;5102804;28;20119;-86
2021/08/24 08:13:30;;;;;;;3.90;1.20;;;17.40;96.90;;;;;;5094098;28;20325;-86
2021/08/24 08:15:56;;;;;;;2.20;1.15;;;17.50;96.20;;;;;;5103251;28;20117;-86
2021/08/24 08:18:21;;;;;;;2.72;1.20;;;17.60;96.40;;;;;;5111278;28;20036;-85
2021/08/24 08:20:47;;;;;;;5.38;1.40;;;17.60;95.70;;;;;;5105961;28;20052;-86
2021/08/24 08:23:14;;;;;;;2.22;1.20;;;17.70;95.30;;;;;;5098300;28;20026;-84
2021/08/24 08:25:41;;;;;;;3.65;1.10;;;17.70;95.50;;;;;;5097794;28;20484;-86
2021/08/24 08:28:07;;;;;;;1.58;1.00;;;17.80;95.60;;;;;;5102502;28;20031;-85
2021/08/24 08:30:34;;;;;;;3.17;1.25;;;17.90;96.20;;;;;;5119977;28;20043;-86
2021/08/24 08:33:04;;;;;;;2.00;0.93;;;18.00;95.30;;;;;;5119016;28;20435;-85
2021/08/24 08:35:30;;;;;;;2.35;1.15;;;18.10;95.60;;;;;;5103429;28;20036;-85
2021/08/24 08:37:56;;;;;;;2.72;0.85;;;18.10;95.50;;;;;;5099294;28;20039;-86
2021/08/24 08:40:35;;;;;;;2.63;1.02;;;18.20;95.50;;;;;;5099635;28;20079;-86
2021/08/24 08:43:24;;;;;;;3.33;1.10;;;18.30;95.20;;;;;;5112358;28;20044;-85
2021/08/24 08:45:52;;;;;;;4.90;1.25;;;18.40;95.40;;;;;;5113197;28;20040;-86
2021/08/24 08:48:38;;;;;;;4.07;1.23;;;18.50;95.30;;;;;;5118851;28;20577;-86
2021/08/24 08:51:30;;;;;;;6.65;1.20;;;18.70;94.20;;;;;;5114634;28;20036;-86
2021/08/24 08:54:26;;;;;;;4.35;0.90;;;18.70;93.90;;;;;;5090842;28;20036;-86
2021/08/24 08:57:02;;;;;;;2.83;1.77;;;18.60;94.00;;;;;;5112343;28;20035;-85
2021/08/24 08:59:38;;;;;;;2.45;1.13;;;18.70;94.40;;;;;;5118838;28;20043;-86
2021/08/24 09:02:21;;;;;;;2.13;1.35;;;18.80;93.80;;;;;;5117207;28;20047;-85
2021/08/24 09:04:48;;;;;;;2.83;1.15;;;18.80;94.10;;;;;;5099898;28;20044;-85
2021/08/24 09:07:28;;;;;;;3.17;1.05;;;18.90;94.20;;;;;;5098611;28;20039;-85
2021/08/24 09:09:54;;;;;;;2.85;1.00;;;19.00;93.30;;;;;;5098075;28;20055;-85
2021/08/24 09:12:21;;;;;;;2.00;1.05;;;19.00;94.10;;;;;;5097732;28;20043;-85
2021/08/24 09:14:50;;;;;;;3.67;1.10;;;19.00;93.00;;;;;;5097901;28;20036;-85
2021/08/24 09:17:36;;;;;;;1.88;1.30;;;19.00;93.80;;;;;;5105371;28;20088;-85
2021/08/24 09:20:23;;;;;;;2.92;1.30;;;19.10;93.60;;;;;;5098629;28;20040;-86
2021/08/24 09:22:49;;;;;;;7.50;1.20;;;19.30;93.70;;;;;;5097718;28;20054;-86
2021/08/24 09:25:20;;;;;;;1.70;1.00;;;19.30;93.20;;;;;;5097819;28;20382;-86
2021/08/24 09:28:03;;;;;;;2.33;1.10;;;19.40;93.30;;;;;;5105312;28;20109;-86
2021/08/24 09:30:29;;;;;;;1.33;0.85;;;19.40;93.00;;;;;;5118002;28;20048;-86
2021/08/24 09:33:02;;;;;;;3.50;1.60;;;19.50;93.00;;;;;;5111473;28;20109;-86
2021/08/24 09:35:37;;;;;;;3.92;1.40;;;19.50;93.10;;;;;;5100616;28;20043;-87
2021/08/24 09:38:17;;;;;;;3.00;1.20;;;19.50;94.00;;;;;;5098023;28;20321;-87
2021/08/24 09:40:46;;;;;;;2.50;0.93;;;19.50;93.90;;;;;;5103577;28;20036;-86
2021/08/24 09:43:25;;;;;;;3.72;1.75;;;19.50;93.00;;;;;;5079330;28;20576;-86
2021/08/24 09:45:59;;;;;;;1.23;0.88;;;19.60;93.40;;;;;;5085578;28;20060;-86
2021/08/24 09:48:26;;;;;;;2.67;1.05;;;19.60;93.20;;;;;;5104640;28;20096;-86
2021/08/24 09:50:52;;;;;;;1.80;0.98;;;19.60;93.10;;;;;;5108029;28;20097;-86
2021/08/24 09:53:29;;;;;;;3.50;1.08;;;19.40;93.30;;;;;;5118253;28;20039;-85
2021/08/24 09:55:55;;;;;;;2.97;0.90;;;19.40;93.20;;;;;;5117504;28;20028;-85
2021/08/24 09:58:33;;;;;;;2.50;1.38;;;19.40;93.40;;;;;;5116921;28;20133;-86
2021/08/24 10:01:05;;;;;;;2.10;0.90;;;19.40;93.60;;;;;;5116772;28;20122;-85
2021/08/24 10:03:42;;;;;;;2.83;1.05;;;19.40;93.60;;;;;;5118607;28;20063;-86
2021/08/24 10:06:26;;;;;;;2.28;0.85;;;19.40;93.40;;;;;;5108760;28;20467;-86
2021/08/24 10:08:56;;;;;;;3.45;1.60;;;19.50;93.90;;;;;;5085579;28;20040;-86
2021/08/24 10:11:24;;;;;;;1.45;0.90;;;19.40;94.00;;;;;;5102373;28;20032;-87
2021/08/24 10:13:51;;;;;;;1.77;1.10;;;19.50;93.80;;;;;;5106165;28;20317;-86
2021/08/24 10:16:26;;;;;;;1.80;1.23;;;19.60;93.80;;;;;;5116663;28;20044;-86
2021/08/24 10:19:19;;;;;;;4.18;0.90;;;19.70;93.70;;;;;;5096167;28;20160;-86
2021/08/24 10:22:00;;;;;;;1.60;0.90;;;19.90;93.70;;;;;;5097294;28;20498;-86
2021/08/24 10:24:32;;;;;;;2.50;0.93;;;20.10;92.50;;;;;;5105760;28;20040;-84
2021/08/24 10:27:08;;;;;;;6.75;1.10;;;20.30;92.10;;;;;;5104890;28;20062;-85
2021/08/24 10:29:38;;;;;;;2.40;1.23;;;20.50;91.00;;;;;;5097504;28;20067;-84
2021/08/24 10:32:21;;;;;;;2.60;1.20;;;20.60;91.70;;;;;;5097731;28;20073;-87
2021/08/24 10:34:48;;;;;;;3.15;0.93;;;20.80;90.50;;;;;;5112400;27;20043;-86
2021/08/24 10:37:29;;;;;;;4.22;1.10;;;20.90;90.10;;;;;;5092727;28;20119;-88
2021/08/24 10:40:08;;;;;;;2.42;1.25;;;21.00;89.50;;;;;;5099236;28;20048;-88
2021/08/24 10:42:35;;;;;;;1.70;1.20;;;21.10;91.00;;;;;;5109003;28;20031;-87
2021/08/24 10:45:17;;;;;;;2.00;1.10;;;21.20;90.30;;;;;;5124584;28;20072;-89
2021/08/24 10:47:42;;;;;;;2.35;1.00;;;21.20;89.50;;;;;;5100772;28;20297;-87
2021/08/24 10:50:23;;;;;;;3.97;2.17;;;21.20;89.10;;;;;;5098422;28;20044;-88
2021/08/24 10:53:24;;;;;;;3.45;1.50;;;21.20;89.70;;;;;;5105396;28;20040;-88
2021/08/24 10:55:56;;;;;;;2.20;1.48;;;21.30;89.20;;;;;;5113983;28;20042;-90
2021/08/24 10:58:36;;;;;;;2.05;1.23;;;21.50;89.10;;;;;;5113058;28;20032;-90
2021/08/24 11:01:20;;;;;;;2.08;1.30;;;21.70;87.20;;;;;;5118747;28;20363;-86
2021/08/24 11:04:10;;;;;;;2.65;1.35;;;21.90;87.10;;;;;;5080543;28;20107;-88
2021/08/24 11:06:53;;;;;;;2.70;1.65;;;22.00;86.70;;;;;;5078801;28;20421;-88
2021/08/24 11:09:41;;;;;;;2.65;1.10;;;22.00;86.00;;;;;;5078029;28;20055;-88
2021/08/24 11:12:19;;;;;;;2.65;1.30;;;21.90;86.40;;;;;;5078640;28;20035;-89
2021/08/24 11:14:47;;;;;;;4.07;1.30;;;21.80;85.00;;;;;;5090618;28;20402;-89
2021/08/24 11:17:30;;;;;;;2.10;1.17;;;21.70;86.60;;;;;;5099723;28;20119;-90
2021/08/24 11:20:10;;;;;;;2.40;1.25;;;21.70;87.20;;;;;;5118017;28;20059;-89
2021/08/24 11:22:57;;;;;;;3.58;1.02;;;21.90;85.70;;;;;;5117213;28;20042;-89
2021/08/24 11:25:49;;;;;;;1.60;1.10;;;22.10;85.50;;;;;;5118256;28;20498;-87
2021/08/24 11:28:23;;;;;;;1.60;1.03;;;22.30;84.90;;;;;;5117099;28;20035;-88
2021/08/24 11:31:01;;;;;;;5.97;1.60;;;22.50;83.80;;;;;;5117427;28;20334;-89
2021/08/24 11:33:37;;;;;;;2.00;1.30;;;22.70;82.20;;;;;;5103987;28;20036;-88
2021/08/24 11:36:14;;;;;;;1.83;1.27;;;22.80;85.30;;;;;;5103007;28;20301;-89
2021/08/24 11:38:43;;;;;;;1.60;1.08;;;22.80;83.70;;;;;;5116396;28;20039;-87
2021/08/24 11:41:15;;;;;;;3.17;1.45;;;22.80;83.40;;;;;;5117513;28;20122;-88
2021/08/24 11:43:54;;;;;;;1.60;1.23;;;22.70;82.10;;;;;;5117264;28;20347;-88
2021/08/24 11:46:29;;;;;;;9.85;1.50;;;22.50;82.70;;;;;;5114526;28;20065;-89
2021/08/24 11:49:04;;;;;;;2.85;1.25;;;22.50;83.80;;;;;;5097441;28;20067;-87
2021/08/24 11:51:34;;;;;;;2.60;1.35;;;22.40;84.10;;;;;;5075399;28;20036;-87
2021/08/24 11:54:19;;;;;;;2.67;1.27;;;22.30;86.60;;;;;;5075680;28;20372;-88
2021/08/24 11:57:05;;;;;;;4.05;1.33;;;22.30;85.40;;;;;;5076199;28;20036;-88
2021/08/24 11:59:40;;;;;;;1.38;1.15;;;22.20;83.60;;;;;;5079412;28;20056;-87
2021/08/24 12:02:12;;;;;;;2.60;1.45;;;22.20;83.40;;;;;;5116420;28;20086;-88
2021/08/24 12:04:41;;;;;;;2.83;1.35;;;22.20;83.50;;;;;;5113111;28;20043;-87
2021/08/24 12:07:12;;;;;;;6.07;1.65;;;22.20;81.60;;;;;;5092829;28;20039;-87
2021/08/24 12:09:44;;;;;;;1.77;1.10;;;22.20;82.80;;;;;;5113712;28;20040;-87
2021/08/24 12:12:41;;;;;;;3.83;1.30;;;22.10;83.30;;;;;;5099732;28;20087;-88
2021/08/24 12:15:15;;;;;;;2.55;1.38;;;22.10;84.10;;;;;;5101520;28;20036;-88
2021/08/24 12:17:40;;;;;;;2.72;1.48;;;22.20;83.50;;;;;;5102077;28;20032;-88
2021/08/24 12:20:08;;;;;;;3.28;1.27;;;22.40;81.00;;;;;;5100503;28;20044;-88
2021/08/24 12:22:42;;;;;;;2.03;1.05;;;22.50;80.10;;;;;;5109666;28;20047;-88
2021/08/24 12:25:12;;;;;;;3.10;0.90;;;22.50;82.10;;;;;;5120934;28;20275;-86
2021/08/24 12:27:55;;;;;;;1.65;1.00;;;22.50;82.30;;;;;;5119440;28;20040;-87
2021/08/24 12:30:24;;;;;;;3.33;1.50;;;22.40;81.20;;;;;;5117953;28;20047;-87
2021/08/24 12:32:49;;;;;;;3.88;1.10;;;22.30;82.50;;;;;;5119097;28;20036;-86
2021/08/24 12:35:31;;;;;;;1.45;0.90;;;22.20;83.10;;;;;;5119796;28;20031;-87
2021/08/24 12:38:02;;;;;;;2.20;0.98;;;22.10;83.00;;;;;;5118983;28;20047;-86
2021/08/24 12:40:48;;;;;;;2.38;1.20;;;22.00;84.40;;;;;;5120547;28;20329;-88
2021/08/24 12:43:25;;;;;;;3.10;1.45;;;21.90;82.90;;;;;;5119645;28;20107;-88
2021/08/24 12:46:18;;;;;;;2.28;1.30;;;21.80;84.10;;;;;;5110520;28;20415;-89
2021/08/24 12:49:29;;;;;;;3.30;1.30;;;21.80;84.70;;;;;;5099474;28;20424;-87
2021/08/24 12:52:00;;;;;;;3.97;1.20;;;21.90;84.60;;;;;;5112119;28;20122;-88
2021/08/24 12:54:30;;;;;;;2.40;1.38;;;22.00;82.10;;;;;;5121575;28;20109;-90
2021/08/24 12:57:02;;;;;;;2.33;1.25;;;22.10;81.30;;;;;;5123206;28;20401;-90
2021/08/24 12:59:38;;;;;;;2.20;1.10;;;22.30;81.70;;;;;;5127241;28;20083;-90
2021/08/24 13:02:30;;;;;;;2.13;1.15;;;22.50;82.30;;;;;;5121317;28;20044;-89
2021/08/24 13:05:15;;;;;;;2.78;1.42;;;22.80;80.40;;;;;;5120425;28;20035;-90
2021/08/24 13:07:46;;;;;;;1.52;0.80;;;23.10;77.50;;;;;;5120879;28;20067;-88
2021/08/24 13:10:32;;;;;;;2.92;1.13;;;23.30;78.50;;;;;;5118975;28;20043;-88